Time;durP1;ratioP1;P1;durP2;ratioP2;P2;SDS_P1;SDS_P2;PMS_P1;PMS_P2;Temp;Humidity;BMP_temperature;BMP_pressure;BME280_temperature;BME280_humidity;BME280_pressure;Samples;Min_cycle;Max_cycle;Signal;HPM_P1;HPM_P2
2021/11/03 00:00:07;;;;;;;12.90;4.97;;;;;;;6.88;94.04;96796.56;5034192;28;20676;-88
2021/11/03 00:02:35;;;;;;;11.63;5.63;;;;;;;6.92;93.27;96804.00;5050079;28;21218;-88
2021/11/03 00:05:04;;;;;;;10.40;5.40;;;;;;;6.96;93.90;96800.25;5045860;28;20636;-88
2021/11/03 00:07:32;;;;;;;14.43;5.33;;;;;;;6.96;93.72;96795.06;5031853;28;20648;-88
2021/11/03 00:10:00;;;;;;;7.90;4.63;;;;;;;6.97;93.46;96798.47;5046714;28;20664;-88
2021/11/03 00:12:31;;;;;;;10.17;5.17;;;;;;;6.98;92.94;96787.16;5046405;28;20644;-88
2021/11/03 00:14:59;;;;;;;11.10;5.60;;;;;;;6.99;93.98;96786.22;5046919;28;20647;-88
2021/11/03 00:17:28;;;;;;;8.67;5.00;;;;;;;7.03;93.75;96772.91;5044531;28;21280;-88
2021/11/03 00:19:56;;;;;;;16.73;5.10;;;;;;;7.04;94.83;96769.38;5047734;28;20636;-88
2021/11/03 00:22:24;;;;;;;12.70;4.87;;;;;;;7.04;93.12;96770.19;5048603;28;20724;-88
2021/11/03 00:24:52;;;;;;;8.90;5.30;;;;;;;7.03;93.87;96778.91;5043066;28;20653;-88
2021/11/03 00:27:20;;;;;;;11.13;4.50;;;;;;;7.06;93.10;96777.84;5030455;28;20635;-87
2021/11/03 00:29:52;;;;;;;10.03;4.90;;;;;;;7.06;94.04;96776.09;5050110;28;20637;-88
2021/11/03 00:32:21;;;;;;;8.77;4.80;;;;;;;7.07;93.18;96776.94;5066703;28;21219;-88
2021/11/03 00:34:49;;;;;;;6.20;4.03;;;;;;;7.09;94.12;96782.81;5048392;28;21294;-88
2021/11/03 00:37:17;;;;;;;5.30;4.53;;;;;;;7.08;93.31;96771.63;5030840;28;21015;-88
2021/11/03 00:39:46;;;;;;;5.57;4.60;;;;;;;7.10;92.99;96769.75;5030445;28;20696;-88
2021/11/03 00:42:15;;;;;;;15.47;5.10;;;;;;;7.07;93.45;96769.16;5031365;28;20621;-87
2021/11/03 00:44:43;;;;;;;5.83;5.23;;;;;;;6.99;92.93;96779.28;5050560;28;20636;-87
2021/11/03 00:47:13;;;;;;;6.67;5.20;;;;;;;6.94;92.92;96785.75;5030919;28;20690;-88
2021/11/03 00:49:41;;;;;;;7.13;4.83;;;;;;;6.97;92.74;96780.31;5030239;28;20698;-88
2021/11/03 00:52:09;;;;;;;7.30;5.00;;;;;;;6.98;93.23;96777.63;5045330;28;20659;-88
2021/11/03 00:54:37;;;;;;;8.43;5.70;;;;;;;7.04;91.90;96780.56;5028822;28;21220;-87
2021/11/03 00:57:06;;;;;;;5.93;4.30;;;;;;;7.09;93.79;96768.06;5051986;28;20651;-88
2021/11/03 00:59:34;;;;;;;6.77;4.93;;;;;;;7.12;93.89;96762.66;5064140;28;20706;-87
2021/11/03 01:02:03;;;;;;;6.13;4.77;;;;;;;7.14;93.98;96765.97;5063687;28;20660;-87
2021/11/03 01:04:33;;;;;;;7.47;5.43;;;;;;;7.15;94.70;96756.44;5035540;28;20701;-88
2021/11/03 01:07:03;;;;;;;8.17;5.23;;;;;;;7.18;93.23;96759.59;5047787;28;20639;-87
2021/11/03 01:09:31;;;;;;;8.27;5.07;;;;;;;7.18;93.94;96757.00;5047859;28;20665;-88
2021/11/03 01:11:59;;;;;;;12.93;5.23;;;;;;;7.21;93.91;96745.59;5039802;28;20625;-88
2021/11/03 01:14:27;;;;;;;6.00;4.43;;;;;;;7.26;94.25;96751.25;5027086;28;20644;-88
2021/11/03 01:16:57;;;;;;;7.30;5.10;;;;;;;7.30;94.15;96747.47;5029591;28;20653;-87
2021/11/03 01:19:25;;;;;;;7.23;5.00;;;;;;;7.34;95.17;96736.75;5031854;28;20674;-88
2021/11/03 01:21:55;;;;;;;8.67;4.70;;;;;;;7.37;93.88;96730.53;5044773;28;20923;-88
2021/11/03 01:24:23;;;;;;;5.67;4.70;;;;;;;7.39;94.17;96724.25;5046861;28;20632;-87
2021/11/03 01:26:51;;;;;;;8.43;5.00;;;;;;;7.41;93.60;96714.56;5025912;28;20668;-88
2021/11/03 01:29:19;;;;;;;8.17;5.57;;;;;;;7.43;94.64;96699.75;5025452;28;20632;-88
2021/11/03 01:31:49;;;;;;;8.20;5.80;;;;;;;7.40;93.65;96702.56;5029412;28;20668;-87
2021/11/03 01:34:17;;;;;;;8.30;5.53;;;;;;;7.41;93.50;96687.81;5046728;28;21226;-87
2021/11/03 01:36:45;;;;;;;6.87;4.93;;;;;;;7.41;94.74;96686.03;5044820;28;20655;-88
2021/11/03 01:39:15;;;;;;;7.23;4.93;;;;;;;7.44;93.67;96691.00;5045492;28;20641;-87
2021/11/03 01:41:43;;;;;;;6.80;4.37;;;;;;;7.46;93.41;96689.13;5046735;28;20632;-88
2021/11/03 01:44:13;;;;;;;5.97;4.13;;;;;;;7.48;94.22;96695.00;5026503;28;20628;-88
2021/11/03 01:46:44;;;;;;;6.27;4.00;;;;;;;7.49;93.88;96694.06;5030180;28;20635;-88
2021/11/03 01:49:21;;;;;;;5.40;4.10;;;;;;;7.49;94.39;96694.88;5045857;28;20682;-88
2021/11/03 01:51:59;;;;;;;7.40;4.30;;;;;;;7.52;95.92;96699.84;5047811;28;20652;-88
2021/11/03 01:54:33;;;;;;;4.60;3.77;;;;;;;7.56;94.41;96695.22;5046553;28;21291;-87
2021/11/03 01:57:07;;;;;;;6.10;3.90;;;;;;;7.59;94.51;96692.38;5026642;28;20672;-87
2021/11/03 01:59:38;;;;;;;5.60;3.90;;;;;;;7.62;94.76;96689.56;5059710;28;20629;-87
2021/11/03 02:02:08;;;;;;;6.50;3.70;;;;;;;7.62;94.98;96681.78;5029134;28;20640;-88
2021/11/03 02:04:37;;;;;;;5.37;3.67;;;;;;;7.65;94.53;96681.53;5044802;28;20632;-87
2021/11/03 02:07:11;;;;;;;5.43;3.80;;;;;;;7.69;94.98;96675.16;5029997;28;20722;-87
2021/11/03 02:09:42;;;;;;;5.20;3.90;;;;;;;7.71;95.65;96678.44;5025567;28;20693;-88
2021/11/03 02:12:16;;;;;;;6.17;3.90;;;;;;;7.72;94.68;96691.31;5058660;28;20653;-87
2021/11/03 02:14:45;;;;;;;4.50;3.40;;;;;;;7.70;95.37;96677.63;5028768;28;20660;-87
2021/11/03 02:17:14;;;;;;;3.60;2.53;;;;;;;7.77;95.12;96688.34;5025943;28;20649;-87
2021/11/03 02:19:44;;;;;;;2.70;2.17;;;;;;;7.85;95.99;96685.94;5043574;28;20630;-87
2021/11/03 02:22:17;;;;;;;1.97;1.43;;;;;;;7.95;95.99;96686.88;5030000;28;20620;-87
2021/11/03 02:24:52;;;;;;;2.70;1.60;;;;;;;8.05;95.05;96686.81;5046875;28;20690;-88
2021/11/03 02:27:24;;;;;;;2.20;1.70;;;;;;;8.17;95.31;96683.28;5029445;28;20678;-87
2021/11/03 02:29:52;;;;;;;2.70;1.43;;;;;;;8.26;95.42;96679.09;5061156;28;20636;-87
2021/11/03 02:32:22;;;;;;;2.87;1.40;;;;;;;8.36;95.14;96667.00;5029965;28;20646;-88
2021/11/03 02:34:51;;;;;;;1.60;1.20;;;;;;;8.44;95.15;96669.81;5045181;28;20983;-87
2021/11/03 02:37:43;;;;;;;2.43;1.83;;;;;;;8.50;95.42;96670.13;5029751;28;20633;-87
2021/11/03 02:40:26;;;;;;;4.13;1.60;;;;;;;8.51;95.54;96672.59;5041399;28;21778;-87
2021/11/03 02:42:59;;;;;;;3.40;1.50;;;;;;;8.57;94.85;96660.88;5062015;28;20655;-88
2021/11/03 02:45:35;;;;;;;5.00;1.70;;;;;;;8.60;94.40;96660.59;5042717;28;21219;-88
2021/11/03 02:48:04;;;;;;;5.80;4.63;;;;;;;8.63;94.06;96650.78;5032613;28;20634;-87
2021/11/03 02:50:32;;;;;;;4.50;3.73;;;;;;;8.59;94.67;96654.59;5045036;28;20633;-87
2021/11/03 02:53:00;;;;;;;6.00;3.80;;;;;;;8.52;94.17;96653.47;5080029;28;20675;-87
2021/11/03 02:55:29;;;;;;;6.20;4.10;;;;;;;8.47;93.95;96658.19;5060775;28;20637;-87
2021/11/03 02:57:59;;;;;;;3.47;3.03;;;;;;;8.37;93.42;96651.28;5047055;28;21066;-87
2021/11/03 03:00:27;;;;;;;4.07;3.23;;;;;;;8.32;93.83;96652.63;5026391;28;20627;-88
2021/11/03 03:02:56;;;;;;;4.40;3.40;;;;;;;8.31;93.36;96644.00;5030405;28;20999;-87
2021/11/03 03:05:24;;;;;;;4.30;3.53;;;;;;;8.32;94.00;96645.66;5041407;28;21417;-87
2021/11/03 03:07:52;;;;;;;3.80;3.20;;;;;;;8.32;95.40;96643.06;5063221;28;20629;-87
2021/11/03 03:10:21;;;;;;;4.10;3.40;;;;;;;8.32;95.17;96630.06;5041251;28;20785;-87
2021/11/03 03:12:51;;;;;;;3.60;3.00;;;;;;;8.29;94.07;96640.72;5025777;28;20732;-87
2021/11/03 03:15:20;;;;;;;5.70;3.80;;;;;;;8.32;93.97;96634.47;5047217;28;20632;-87
2021/11/03 03:17:48;;;;;;;3.33;3.00;;;;;;;8.28;94.29;96639.06;5025339;28;20657;-87
2021/11/03 03:20:17;;;;;;;3.83;3.27;;;;;;;8.28;94.95;96641.66;5047804;28;20643;-87
2021/11/03 03:22:45;;;;;;;4.97;3.47;;;;;;;8.29;93.96;96645.91;5043865;28;20652;-87
2021/11/03 03:25:14;;;;;;;5.10;3.33;;;;;;;8.29;94.56;96640.72;5034767;28;20632;-87
2021/11/03 03:27:42;;;;;;;4.37;3.27;;;;;;;8.28;94.92;96639.06;5026727;28;21000;-87
2021/11/03 03:30:14;;;;;;;4.50;3.17;;;;;;;8.24;94.19;96640.28;5056172;28;20700;-87
2021/11/03 03:32:43;;;;;;;4.43;3.47;;;;;;;8.26;94.63;96640.97;5026928;28;21251;-87
2021/11/03 03:35:12;;;;;;;4.10;3.30;;;;;;;8.26;95.43;96630.59;5045314;28;20643;-87
2021/11/03 03:37:40;;;;;;;4.30;3.57;;;;;;;8.27;94.85;96627.03;5038326;28;20625;-87
2021/11/03 03:40:10;;;;;;;3.80;3.07;;;;;;;8.27;95.36;96624.44;5044823;28;20628;-87
2021/11/03 03:42:39;;;;;;;5.13;3.60;;;;;;;8.27;95.71;96629.66;5046211;28;20629;-87
2021/11/03 03:45:08;;;;;;;7.67;3.93;;;;;;;8.29;94.96;96625.13;5043228;28;21045;-87
2021/11/03 03:47:37;;;;;;;5.30;3.50;;;;;;;8.30;95.77;96624.19;5046322;28;20621;-87
2021/11/03 03:50:08;;;;;;;3.93;3.43;;;;;;;8.30;96.06;96631.16;5025849;28;20663;-87
2021/11/03 03:52:37;;;;;;;4.67;3.70;;;;;;;8.30;94.67;96626.78;5029860;28;20644;-87
2021/11/03 03:55:07;;;;;;;4.97;3.90;;;;;;;8.30;95.32;96615.56;5045587;28;20719;-87
2021/11/03 03:57:36;;;;;;;4.60;3.80;;;;;;;8.32;94.75;96613.69;5028370;28;21200;-87
2021/11/03 04:00:06;;;;;;;4.50;3.40;;;;;;;8.32;94.73;96617.09;5048647;28;20660;-87
2021/11/03 04:02:42;;;;;;;5.80;3.83;;;;;;;8.33;95.43;96612.72;5046504;28;20709;-87
2021/11/03 04:05:16;;;;;;;6.77;4.30;;;;;;;8.33;95.35;96608.38;5027809;28;20621;-87
2021/11/03 04:07:45;;;;;;;5.93;3.87;;;;;;;8.34;94.91;96601.38;5032250;28;20738;-87
2021/11/03 04:10:15;;;;;;;6.60;4.40;;;;;;;8.36;94.79;96608.09;5049255;28;20632;-87
2021/11/03 04:12:43;;;;;;;6.57;4.00;;;;;;;8.35;95.16;96609.03;5030749;28;20632;-87
2021/11/03 04:15:13;;;;;;;4.67;4.10;;;;;;;8.34;95.08;96601.38;5028460;28;20654;-87
2021/11/03 04:17:41;;;;;;;4.67;3.70;;;;;;;8.35;95.03;96609.03;5033374;28;20624;-87
2021/11/03 04:20:12;;;;;;;6.37;3.97;;;;;;;8.36;95.26;96615.91;5031445;28;20697;-87
2021/11/03 04:22:43;;;;;;;6.53;4.40;;;;;;;8.35;95.50;96619.44;5039632;28;21147;-87
2021/11/03 04:25:14;;;;;;;6.40;4.10;;;;;;;8.35;96.15;96614.25;5027445;28;20695;-87
2021/11/03 04:27:43;;;;;;;4.50;3.60;;;;;;;8.34;96.09;96611.78;5031024;28;20644;-87
2021/11/03 04:30:13;;;;;;;5.60;4.00;;;;;;;8.36;95.00;96608.09;5046894;28;21269;-87
2021/11/03 04:32:43;;;;;;;5.00;3.67;;;;;;;8.37;95.20;96601.94;5030557;28;20621;-88
2021/11/03 04:35:12;;;;;;;4.50;3.80;;;;;;;8.39;96.08;96607.84;5035230;28;20644;-88
2021/11/03 04:37:41;;;;;;;5.97;4.00;;;;;;;8.36;94.74;96605.50;5048312;28;20766;-87
2021/11/03 04:40:13;;;;;;;5.53;4.17;;;;;;;8.36;94.86;96597.72;5050077;28;21239;-87
2021/11/03 04:42:42;;;;;;;5.50;3.70;;;;;;;8.36;94.53;96600.31;5032914;28;21222;-87
2021/11/03 04:45:11;;;;;;;2.87;2.57;;;;;;;8.39;95.39;96594.88;5031663;28;20686;-88
2021/11/03 04:47:40;;;;;;;3.47;2.17;;;;;;;8.46;94.79;96595.97;5034149;28;21285;-88
2021/11/03 04:50:13;;;;;;;3.77;1.90;;;;;;;8.54;95.05;96586.59;5027802;28;22361;-88
2021/11/03 04:52:42;;;;;;;2.60;1.63;;;;;;;8.63;94.16;96587.59;5048755;28;21004;-88
2021/11/03 04:55:11;;;;;;;3.47;2.17;;;;;;;8.71;93.16;96590.38;5030804;28;20632;-88
2021/11/03 04:57:40;;;;;;;2.53;2.10;;;;;;;8.75;93.64;96586.53;5031156;28;20639;-88
2021/11/03 05:00:12;;;;;;;7.20;1.80;;;;;;;8.84;92.89;96583.16;5045122;28;20656;-88
2021/11/03 05:02:40;;;;;;;5.27;1.63;;;;;;;8.92;92.50;96578.16;5048581;28;20668;-88
2021/11/03 05:05:09;;;;;;;2.50;1.43;;;;;;;9.00;92.91;96571.31;5031550;28;21433;-88
2021/11/03 05:07:37;;;;;;;4.53;2.07;;;;;;;9.05;91.73;96577.78;5060555;28;21239;-87
2021/11/03 05:10:06;;;;;;;2.27;1.83;;;;;;;9.05;90.13;96582.97;5046036;28;20672;-88
2021/11/03 05:12:36;;;;;;;2.53;1.90;;;;;;;9.08;90.01;96577.50;5047596;28;20695;-88
2021/11/03 05:15:05;;;;;;;3.33;1.90;;;;;;;9.05;89.15;96563.94;5031471;28;20643;-88
2021/11/03 05:17:35;;;;;;;1.90;1.47;;;;;;;8.99;88.58;96570.50;5036380;28;20624;-88
2021/11/03 05:20:04;;;;;;;2.10;1.53;;;;;;;9.03;89.26;96571.88;5052725;28;21257;-88
2021/11/03 05:22:32;;;;;;;3.50;1.20;;;;;;;9.04;89.71;96568.31;5045886;28;20628;-88
2021/11/03 05:25:01;;;;;;;2.10;1.73;;;;;;;9.04;89.04;96550.13;5078344;28;20640;-88
2021/11/03 05:27:29;;;;;;;2.83;1.37;;;;;;;9.07;89.53;96549.84;5033532;28;20640;-88
2021/11/03 05:29:58;;;;;;;2.27;1.57;;;;;;;9.11;89.57;96548.66;5049324;28;20628;-88
2021/11/03 05:32:27;;;;;;;2.37;1.30;;;;;;;9.13;88.73;96551.91;5043923;28;20629;-88
2021/11/03 05:34:55;;;;;;;2.33;1.70;;;;;;;9.17;89.21;96548.09;5031125;28;21196;-88
2021/11/03 05:37:23;;;;;;;2.00;1.60;;;;;;;9.22;89.27;96548.53;5047702;28;20632;-88
2021/11/03 05:39:52;;;;;;;1.80;1.20;;;;;;;9.29;88.15;96547.03;5046530;28;20737;-87
2021/11/03 05:42:21;;;;;;;3.40;2.13;;;;;;;9.33;88.71;96555.38;5051530;28;21406;-88
2021/11/03 05:44:49;;;;;;;2.00;1.67;;;;;;;9.36;88.38;96547.31;5046710;28;21244;-88
2021/11/03 05:47:22;;;;;;;1.90;1.40;;;;;;;9.40;88.17;96547.72;5047534;28;20641;-88
2021/11/03 05:49:50;;;;;;;3.47;1.90;;;;;;;9.42;87.19;96540.59;5029210;28;20629;-87
2021/11/03 05:52:18;;;;;;;4.07;1.50;;;;;;;9.45;87.03;96542.91;5030144;28;20649;-87
2021/11/03 05:54:46;;;;;;;1.93;1.30;;;;;;;9.49;86.65;96523.50;5047759;28;20640;-88
2021/11/03 05:57:20;;;;;;;2.80;1.80;;;;;;;9.40;85.85;96523.50;5046187;28;20632;-88
2021/11/03 05:59:49;;;;;;;2.00;1.57;;;;;;;9.38;86.23;96525.38;5038484;28;20711;-88
2021/11/03 06:02:17;;;;;;;5.03;3.80;;;;;;;9.38;87.63;96536.63;5048325;28;20648;-87
2021/11/03 06:04:47;;;;;;;5.97;4.30;;;;;;;9.34;88.80;96526.63;5061516;28;20632;-87
2021/11/03 06:07:16;;;;;;;5.00;3.03;;;;;;;9.29;90.16;96520.19;5061413;28;20636;-88
2021/11/03 06:09:45;;;;;;;6.17;3.73;;;;;;;9.23;89.92;96516.38;5031405;28;20653;-88
2021/11/03 06:12:14;;;;;;;4.07;2.30;;;;;;;9.24;89.51;96519.78;5031042;28;20635;-87
2021/11/03 06:14:42;;;;;;;2.77;2.20;;;;;;;9.25;89.46;96518.84;5049194;28;20637;-87
2021/11/03 06:17:10;;;;;;;11.57;7.63;;;;;;;9.25;90.07;96517.03;5044834;28;20634;-88
2021/11/03 06:19:38;;;;;;;4.87;3.37;;;;;;;9.26;89.66;96510.88;5059809;28;20664;-87
2021/11/03 06:22:08;;;;;;;5.83;4.20;;;;;;;9.28;89.41;96502.94;5044587;28;20708;-87
2021/11/03 06:24:37;;;;;;;5.00;2.73;;;;;;;9.30;89.81;96490.63;5064057;28;20637;-88
2021/11/03 06:27:06;;;;;;;4.60;2.83;;;;;;;9.33;90.64;96488.56;5048817;28;20635;-87
2021/11/03 06:29:34;;;;;;;5.33;4.10;;;;;;;9.37;90.98;96495.16;5043685;28;21001;-87
2021/11/03 06:32:02;;;;;;;2.77;1.87;;;;;;;9.37;90.71;96494.31;5042290;28;20758;-86
2021/11/03 06:34:30;;;;;;;2.33;1.70;;;;;;;9.38;90.32;96493.34;5055508;28;20639;-88
2021/11/03 06:36:58;;;;;;;2.60;1.80;;;;;;;9.40;90.40;96490.47;5061430;28;20633;-88
2021/11/03 06:39:30;;;;;;;4.57;3.00;;;;;;;9.44;89.91;96485.81;5047618;28;20636;-87
2021/11/03 06:41:58;;;;;;;10.77;6.93;;;;;;;9.47;89.03;96485.53;5028187;28;20732;-87
2021/11/03 06:44:27;;;;;;;3.30;2.27;;;;;;;9.47;89.53;96475.13;5030433;28;20723;-87
2021/11/03 06:46:55;;;;;;;5.17;3.07;;;;;;;9.47;90.10;96477.75;5027909;28;21737;-88
2021/11/03 06:49:23;;;;;;;5.63;3.23;;;;;;;9.45;89.70;96477.06;5028357;28;20636;-88
2021/11/03 06:51:51;;;;;;;3.80;3.23;;;;;;;9.48;90.19;96469.78;5079389;28;21011;-88
2021/11/03 06:54:22;;;;;;;5.30;3.73;;;;;;;9.53;90.61;96466.78;5040420;28;21253;-88
2021/11/03 06:56:53;;;;;;;4.57;2.90;;;;;;;9.55;90.41;96462.28;5027826;28;20727;-88
2021/11/03 06:59:21;;;;;;;3.30;2.00;;;;;;;9.58;90.39;96473.22;5030038;28;20629;-87
2021/11/03 07:01:52;;;;;;;4.10;2.40;;;;;;;9.60;90.50;96466.09;5046584;28;20634;-88
2021/11/03 07:04:20;;;;;;;4.03;2.50;;;;;;;9.64;89.50;96479.66;5036871;28;20631;-88
2021/11/03 07:06:49;;;;;;;3.20;1.80;;;;;;;9.71;89.29;96478.13;5043015;28;20699;-88
2021/11/03 07:09:17;;;;;;;2.80;1.60;;;;;;;9.80;87.67;96479.91;5040290;28;20648;-88
2021/11/03 07:11:45;;;;;;;3.20;2.30;;;;;;;9.92;89.09;96485.66;5046353;28;20644;-88
2021/11/03 07:14:15;;;;;;;2.97;2.40;;;;;;;9.99;89.44;96491.97;5029327;28;20644;-88
2021/11/03 07:16:43;;;;;;;3.50;2.70;;;;;;;10.00;89.81;96498.81;5039419;28;20652;-88
2021/11/03 07:19:11;;;;;;;4.00;3.40;;;;;;;9.96;89.74;96507.84;5030954;28;20667;-87
2021/11/03 07:21:40;;;;;;;4.00;2.73;;;;;;;9.90;89.53;96515.38;5048096;28;20663;-87
2021/11/03 07:24:08;;;;;;;2.93;2.00;;;;;;;9.88;89.35;96517.31;5039325;28;21042;-87
2021/11/03 07:26:36;;;;;;;3.43;2.77;;;;;;;9.91;89.33;96515.25;5044579;28;20621;-87
2021/11/03 07:29:04;;;;;;;3.90;3.20;;;;;;;9.92;89.86;96509.09;5028505;28;20664;-88
2021/11/03 07:31:34;;;;;;;4.83;2.73;;;;;;;9.86;90.27;96496.63;5039928;28;20625;-87
2021/11/03 07:34:02;;;;;;;4.03;3.00;;;;;;;9.80;90.37;96506.75;5046724;28;20633;-87
2021/11/03 07:36:32;;;;;;;4.60;3.37;;;;;;;9.80;91.20;96511.16;5029178;28;20632;-88
2021/11/03 07:39:00;;;;;;;4.20;3.60;;;;;;;9.80;91.27;96516.34;5063776;28;21084;-88
2021/11/03 07:41:34;;;;;;;3.67;3.17;;;;;;;9.81;91.52;96513.59;5047454;28;20679;-87
2021/11/03 07:44:03;;;;;;;4.90;3.60;;;;;;;9.80;91.38;96508.53;5047193;28;20636;-87
2021/11/03 07:46:31;;;;;;;4.80;3.60;;;;;;;9.74;91.57;96488.28;5030282;28;20628;-87
2021/11/03 07:49:01;;;;;;;5.73;4.23;;;;;;;9.63;91.16;96470.22;5047645;28;20628;-88
2021/11/03 07:51:29;;;;;;;5.90;4.60;;;;;;;9.63;91.74;96493.63;5048041;28;20686;-88
2021/11/03 07:53:59;;;;;;;3.33;2.77;;;;;;;9.69;91.66;96501.69;5029264;28;20702;-88
2021/11/03 07:56:30;;;;;;;5.60;4.03;;;;;;;9.73;91.35;96505.69;5045711;28;20628;-87
2021/11/03 07:58:59;;;;;;;4.70;3.53;;;;;;;9.79;92.37;96515.53;5032427;28;20940;-89
2021/11/03 08:01:27;;;;;;;4.90;3.90;;;;;;;9.84;92.44;96534.16;5049855;28;20648;-89
2021/11/03 08:03:56;;;;;;;4.50;3.60;;;;;;;9.89;92.44;96522.38;5033190;28;20629;-90
2021/11/03 08:06:26;;;;;;;3.10;2.63;;;;;;;9.91;91.27;96515.25;5045181;28;20629;-90
2021/11/03 08:09:02;;;;;;;6.40;3.10;;;;;;;9.90;89.69;96494.56;5046777;28;20651;-90
2021/11/03 08:11:34;;;;;;;8.47;5.97;;;;;;;9.91;89.75;96484.00;5031108;28;20628;-90
2021/11/03 08:14:03;;;;;;;6.67;4.30;;;;;;;9.90;89.82;96478.94;5032744;28;20634;-88
2021/11/03 08:16:39;;;;;;;3.90;3.10;;;;;;;9.96;88.77;96487.03;5048366;28;20740;-89
2021/11/03 08:19:08;;;;;;;3.10;2.20;;;;;;;9.99;88.51;96499.78;5047204;28;20636;-88
2021/11/03 08:21:37;;;;;;;5.93;4.63;;;;;;;10.06;88.47;96487.03;5028813;28;21067;-88
2021/11/03 08:24:06;;;;;;;4.03;2.77;;;;;;;10.14;88.07;96476.72;5047633;28;20632;-89
2021/11/03 08:26:35;;;;;;;2.90;1.70;;;;;;;10.17;87.35;96477.25;5046339;28;21235;-89
2021/11/03 08:29:03;;;;;;;3.70;2.00;;;;;;;10.18;86.38;96460.66;5046007;28;20632;-89
2021/11/03 08:31:32;;;;;;;4.77;2.37;;;;;;;10.26;86.70;96454.75;5028282;28;20635;-89
2021/11/03 08:34:00;;;;;;;3.97;1.97;;;;;;;10.31;86.55;96442.09;5041563;28;20714;-89
2021/11/03 08:36:28;;;;;;;3.93;2.53;;;;;;;10.34;85.12;96442.63;5030450;28;20625;-89
2021/11/03 08:38:59;;;;;;;4.70;2.10;;;;;;;10.39;83.51;96428.22;5029304;28;20632;-90
2021/11/03 08:41:28;;;;;;;2.30;1.80;;;;;;;10.44;82.58;96433.00;5031190;28;21259;-89
2021/11/03 08:43:57;;;;;;;4.33;1.50;;;;;;;10.47;82.36;96430.09;5043862;28;20636;-89
2021/11/03 08:46:25;;;;;;;2.73;1.37;;;;;;;10.54;83.07;96425.94;5045865;28;20633;-90
2021/11/03 08:48:56;;;;;;;1.83;1.40;;;;;;;10.60;82.68;96433.16;5047131;28;20637;-90
2021/11/03 08:51:25;;;;;;;2.83;1.60;;;;;;;10.63;83.97;96440.69;5044542;28;20695;-88
2021/11/03 08:53:54;;;;;;;2.10;1.60;;;;;;;10.69;84.62;96451.38;5045787;28;20628;-88
2021/11/03 08:56:24;;;;;;;2.93;1.50;;;;;;;10.75;84.10;96449.97;5048023;28;20723;-89
2021/11/03 08:58:52;;;;;;;2.70;1.70;;;;;;;10.80;82.93;96440.75;5028030;28;20747;-89
2021/11/03 09:01:21;;;;;;;3.67;2.00;;;;;;;10.80;82.94;96443.34;5046865;28;20711;-89
2021/11/03 09:03:50;;;;;;;2.87;1.90;;;;;;;10.80;83.05;96435.53;5027709;28;20628;-89
2021/11/03 09:06:19;;;;;;;3.93;2.67;;;;;;;10.80;82.25;96442.53;5032473;28;20636;-88
2021/11/03 09:08:48;;;;;;;7.80;2.87;;;;;;;10.71;82.70;96433.00;5023194;28;20710;-88
2021/11/03 09:11:18;;;;;;;6.37;2.20;;;;;;;10.68;83.26;96434.09;5044405;28;20620;-88
2021/11/03 09:13:47;;;;;;;6.13;1.80;;;;;;;10.78;83.67;96439.25;5044499;28;20700;-87
2021/11/03 09:16:17;;;;;;;1.90;1.40;;;;;;;10.85;82.21;96439.34;5043963;28;21020;-87
2021/11/03 09:18:45;;;;;;;4.80;2.20;;;;;;;10.84;82.23;96440.31;5043933;28;21400;-87
2021/11/03 09:21:14;;;;;;;2.63;1.67;;;;;;;10.80;79.44;96443.34;5044066;28;21035;-87
2021/11/03 09:23:44;;;;;;;3.10;2.03;;;;;;;10.88;80.91;96446.03;5048287;28;20621;-87
2021/11/03 09:26:13;;;;;;;4.33;2.60;;;;;;;10.94;81.78;96445.44;5050503;28;20686;-88
2021/11/03 09:28:41;;;;;;;3.63;2.40;;;;;;;11.03;82.19;96436.75;5047530;28;20727;-87
2021/11/03 09:31:11;;;;;;;4.17;2.10;;;;;;;11.14;81.09;96441.75;5045890;28;20678;-88
2021/11/03 09:33:41;;;;;;;5.00;2.00;;;;;;;11.27;82.72;96440.41;5027938;28;20617;-88
2021/11/03 09:36:17;;;;;;;5.03;2.00;;;;;;;11.43;82.42;96436.16;5043240;28;20637;-87
2021/11/03 09:38:46;;;;;;;3.17;1.97;;;;;;;11.54;82.25;96422.88;5047060;28;21234;-87
2021/11/03 09:41:20;;;;;;;2.60;1.97;;;;;;;11.58;84.05;96416.41;5064410;28;20656;-87
2021/11/03 09:43:53;;;;;;;4.43;2.20;;;;;;;11.63;85.13;96416.75;5031887;28;20711;-87
2021/11/03 09:46:26;;;;;;;3.47;2.20;;;;;;;11.73;84.87;96420.09;5041706;28;20636;-87
2021/11/03 09:48:59;;;;;;;5.30;2.13;;;;;;;11.81;85.37;96420.97;5028958;28;20640;-87
2021/11/03 09:51:29;;;;;;;6.10;2.00;;;;;;;11.90;85.84;96432.31;5043783;28;21251;-87
2021/11/03 09:53:59;;;;;;;3.00;2.00;;;;;;;11.96;84.92;96431.69;5048399;28;20640;-87
2021/11/03 09:56:38;;;;;;;2.47;1.77;;;;;;;11.97;83.04;96435.94;5045481;28;20629;-87
2021/11/03 09:59:18;;;;;;;3.27;1.93;;;;;;;12.04;83.61;96435.19;5058989;28;20665;-87
2021/11/03 10:01:50;;;;;;;3.60;2.40;;;;;;;12.10;84.65;96438.94;5046557;28;20652;-87
2021/11/03 10:04:32;;;;;;;4.13;2.87;;;;;;;12.14;86.50;96435.06;5027518;28;20672;-87
2021/11/03 10:07:06;;;;;;;4.27;3.33;;;;;;;12.20;86.08;96435.25;5042714;28;20627;-87
2021/11/03 10:09:37;;;;;;;3.80;3.00;;;;;;;12.23;86.04;96432.34;5026894;28;20668;-87
2021/11/03 10:12:11;;;;;;;3.50;1.93;;;;;;;12.25;86.37;96435.59;5021521;28;20654;-87
2021/11/03 10:14:40;;;;;;;2.57;1.17;;;;;;;12.24;82.63;96436.59;5044150;28;20639;-87
2021/11/03 10:17:21;;;;;;;1.67;1.07;;;;;;;12.21;77.76;96436.06;5045029;28;20635;-87
2021/11/03 10:19:50;;;;;;;3.80;1.60;;;;;;;12.26;80.17;96439.88;5037639;28;21665;-88
2021/11/03 10:22:30;;;;;;;3.17;2.60;;;;;;;12.29;83.24;96436.94;5027559;28;20757;-89
2021/11/03 10:25:23;;;;;;;4.87;3.10;;;;;;;12.24;84.81;96436.59;5042890;28;20678;-89
2021/11/03 10:27:55;;;;;;;4.00;2.60;;;;;;;12.22;84.67;96433.31;5027934;28;21105;-88
2021/11/03 10:30:32;;;;;;;3.33;2.30;;;;;;;12.26;85.06;96438.06;5041467;28;20657;-87
2021/11/03 10:33:13;;;;;;;4.23;2.83;;;;;;;12.31;86.23;96448.06;5034475;28;20687;-88
2021/11/03 10:35:43;;;;;;;3.97;3.30;;;;;;;12.31;84.25;96455.91;5046610;28;20731;-88
2021/11/03 10:38:14;;;;;;;4.70;2.93;;;;;;;12.30;85.45;96455.09;5047153;28;21138;-88
2021/11/03 10:40:47;;;;;;;3.30;2.80;;;;;;;12.31;85.94;96450.66;5059395;28;21252;-87
2021/11/03 10:43:30;;;;;;;4.20;2.80;;;;;;;12.32;85.27;96454.94;5043923;28;21248;-88
2021/11/03 10:46:04;;;;;;;4.10;2.57;;;;;;;12.30;84.94;96460.31;5045132;28;21158;-87
2021/11/03 10:48:33;;;;;;;3.57;2.77;;;;;;;12.31;84.21;96459.34;5045838;28;20664;-87
2021/11/03 10:51:13;;;;;;;3.83;2.63;;;;;;;12.32;84.80;96465.38;5041795;28;20639;-88
2021/11/03 10:53:53;;;;;;;4.10;2.67;;;;;;;12.30;84.54;96464.75;5044854;28;20625;-87
2021/11/03 10:56:27;;;;;;;4.57;3.50;;;;;;;12.30;84.71;96470.78;5042009;28;21103;-88
2021/11/03 10:59:00;;;;;;;6.47;3.13;;;;;;;12.26;84.54;96466.81;5043495;28;20735;-86
2021/11/03 11:01:32;;;;;;;5.43;3.03;;;;;;;12.24;83.17;96463.53;5024918;28;20739;-88
2021/11/03 11:04:05;;;;;;;4.50;2.83;;;;;;;12.23;83.25;96472.34;5043213;28;20660;-87
2021/11/03 11:06:39;;;;;;;4.03;3.20;;;;;;;12.26;84.25;96461.59;5028480;28;20724;-87
2021/11/03 11:09:20;;;;;;;5.70;3.03;;;;;;;12.32;83.91;96462.78;5030159;28;20757;-87
2021/11/03 11:11:56;;;;;;;4.60;3.20;;;;;;;12.38;84.93;96460.34;5042133;28;20652;-87
2021/11/03 11:14:27;;;;;;;4.40;3.30;;;;;;;12.42;84.53;96469.53;5045129;28;20636;-87
2021/11/03 11:16:58;;;;;;;4.00;3.30;;;;;;;12.46;85.26;96473.50;5043255;28;20624;-87
2021/11/03 11:19:40;;;;;;;4.67;3.33;;;;;;;12.46;83.33;96475.25;5029847;28;20694;-87
2021/11/03 11:22:20;;;;;;;4.00;3.30;;;;;;;12.45;83.85;96476.25;5044924;28;21208;-87
2021/11/03 11:24:57;;;;;;;6.40;4.00;;;;;;;12.46;85.25;96477.88;5042654;28;20719;-87
2021/11/03 11:27:28;;;;;;;4.50;3.93;;;;;;;12.45;84.71;96477.06;5027271;28;20636;-87
2021/11/03 11:30:03;;;;;;;4.20;2.90;;;;;;;12.45;83.62;96465.81;5041920;28;20662;-87
2021/11/03 11:32:34;;;;;;;3.73;2.70;;;;;;;12.45;82.96;96461.38;5029820;28;20654;-87
2021/11/03 11:35:12;;;;;;;3.13;2.53;;;;;;;12.42;82.51;96461.69;5043374;28;20723;-87
2021/11/03 11:37:47;;;;;;;3.60;2.83;;;;;;;12.47;84.15;96458.59;5044446;28;20640;-87
2021/11/03 11:40:26;;;;;;;4.93;3.57;;;;;;;12.50;83.87;96464.34;5030358;28;20726;-87
2021/11/03 11:42:58;;;;;;;3.63;2.80;;;;;;;12.54;84.72;96460.44;5034094;28;20756;-87
2021/11/03 11:45:28;;;;;;;5.80;3.50;;;;;;;12.59;85.04;96465.22;5030843;28;20760;-87
2021/11/03 11:47:59;;;;;;;3.50;2.80;;;;;;;12.61;84.64;96471.91;5029953;28;20624;-88
2021/11/03 11:50:36;;;;;;;3.90;3.10;;;;;;;12.64;84.99;96476.00;5039499;28;20628;-87
2021/11/03 11:53:20;;;;;;;7.50;4.43;;;;;;;12.65;84.71;96470.63;5049507;28;20980;-87